sensor_id;sensor_type;location;lat;lon;timestamp;P1;durP1;ratioP1;P2;durP2;ratioP2
31378;SDS011;61664;48.112;11.662;2022-10-14T00:01:14;2.90;;;2.70;;
31378;SDS011;61664;48.112;11.662;2022-10-14T00:03:44;3.53;;;2.30;;
31378;SDS011;61664;48.112;11.662;2022-10-14T00:06:12;2.08;;;1.88;;
31378;SDS011;61664;48.112;11.662;2022-10-14T00:08:46;2.45;;;2.25;;
31378;SDS011;61664;48.112;11.662;2022-10-14T00:11:15;2.78;;;2.58;;
31378;SDS011;61664;48.112;11.662;2022-10-14T00:13:49;2.75;;;2.55;;
31378;SDS011;61664;48.112;11.662;2022-10-14T00:16:21;2.45;;;2.25;;
31378;SDS011;61664;48.112;11.662;2022-10-14T00:18:57;2.22;;;2.08;;
31378;SDS011;61664;48.112;11.662;2022-10-14T00:21:25;2.00;;;1.90;;
31378;SDS011;61664;48.112;11.662;2022-10-14T00:23:54;2.00;;;1.80;;
31378;SDS011;61664;48.112;11.662;2022-10-14T00:26:23;1.63;;;1.52;;
31378;SDS011;61664;48.112;11.662;2022-10-14T00:28:56;2.08;;;1.67;;
31378;SDS011;61664;48.112;11.662;2022-10-14T00:31:25;1.67;;;1.58;;
31378;SDS011;61664;48.112;11.662;2022-10-14T00:33:53;1.45;;;1.35;;
31378;SDS011;61664;48.112;11.662;2022-10-14T00:36:21;1.30;;;1.20;;
31378;SDS011;61664;48.112;11.662;2022-10-14T00:38:50;1.73;;;1.50;;
31378;SDS011;61664;48.112;11.662;2022-10-14T00:44:04;1.35;;;1.25;;
31378;SDS011;61664;48.112;11.662;2022-10-14T00:46:41;1.58;;;1.48;;
31378;SDS011;61664;48.112;11.662;2022-10-14T00:49:11;1.60;;;1.50;;
31378;SDS011;61664;48.112;11.662;2022-10-14T00:51:53;1.50;;;1.25;;
31378;SDS011;61664;48.112;11.662;2022-10-14T00:54:45;2.15;;;1.27;;
31378;SDS011;61664;48.112;11.662;2022-10-14T00:57:18;2.17;;;1.20;;
31378;SDS011;61664;48.112;11.662;2022-10-14T00:59:47;1.55;;;1.30;;
31378;SDS011;61664;48.112;11.662;2022-10-14T01:02:14;1.80;;;1.70;;
31378;SDS011;61664;48.112;11.662;2022-10-14T01:04:41;1.65;;;1.50;;
31378;SDS011;61664;48.112;11.662;2022-10-14T01:10:29;1.60;;;1.50;;
31378;SDS011;61664;48.112;11.662;2022-10-14T01:16:00;1.63;;;1.52;;
31378;SDS011;61664;48.112;11.662;2022-10-14T01:29:43;3.25;;;1.85;;
31378;SDS011;61664;48.112;11.662;2022-10-14T01:32:26;2.03;;;1.30;;
31378;SDS011;61664;48.112;11.662;2022-10-14T01:38:02;2.00;;;1.90;;
31378;SDS011;61664;48.112;11.662;2022-10-14T01:43:26;1.98;;;1.60;;
31378;SDS011;61664;48.112;11.662;2022-10-14T01:45:57;2.22;;;1.92;;
31378;SDS011;61664;48.112;11.662;2022-10-14T01:48:37;8.95;;;1.75;;
31378;SDS011;61664;48.112;11.662;2022-10-14T01:51:13;1.60;;;1.50;;
31378;SDS011;61664;48.112;11.662;2022-10-14T01:54:09;1.90;;;1.80;;
31378;SDS011;61664;48.112;11.662;2022-10-14T01:56:43;6.72;;;1.50;;
31378;SDS011;61664;48.112;11.662;2022-10-14T01:59:13;2.17;;;1.55;;
31378;SDS011;61664;48.112;11.662;2022-10-14T02:01:45;1.35;;;1.25;;
31378;SDS011;61664;48.112;11.662;2022-10-14T02:04:16;2.40;;;1.40;;
31378;SDS011;61664;48.112;11.662;2022-10-14T02:06:47;1.30;;;1.20;;
31378;SDS011;61664;48.112;11.662;2022-10-14T02:09:37;2.28;;;1.13;;
31378;SDS011;61664;48.112;11.662;2022-10-14T02:12:39;0.80;;;0.80;;
31378;SDS011;61664;48.112;11.662;2022-10-14T02:21:47;1.10;;;1.00;;
31378;SDS011;61664;48.112;11.662;2022-10-14T02:24:39;1.08;;;0.88;;
31378;SDS011;61664;48.112;11.662;2022-10-14T02:27:15;1.25;;;0.70;;
31378;SDS011;61664;48.112;11.662;2022-10-14T02:29:47;1.30;;;0.80;;
31378;SDS011;61664;48.112;11.662;2022-10-14T02:32:17;0.70;;;0.70;;
31378;SDS011;61664;48.112;11.662;2022-10-14T02:34:48;2.17;;;0.95;;
31378;SDS011;61664;48.112;11.662;2022-10-14T02:37:19;0.88;;;0.80;;
31378;SDS011;61664;48.112;11.662;2022-10-14T02:39:56;1.67;;;0.85;;
31378;SDS011;61664;48.112;11.662;2022-10-14T02:42:30;2.53;;;0.70;;
31378;SDS011;61664;48.112;11.662;2022-10-14T02:44:57;1.58;;;0.90;;
31378;SDS011;61664;48.112;11.662;2022-10-14T02:47:27;1.13;;;0.93;;
31378;SDS011;61664;48.112;11.662;2022-10-14T02:49:54;1.90;;;0.93;;
31378;SDS011;61664;48.112;11.662;2022-10-14T02:52:21;0.73;;;0.73;;
31378;SDS011;61664;48.112;11.662;2022-10-14T02:54:48;1.13;;;1.10;;
31378;SDS011;61664;48.112;11.662;2022-10-14T02:57:15;1.08;;;0.93;;
31378;SDS011;61664;48.112;11.662;2022-10-14T02:59:42;1.48;;;0.90;;
31378;SDS011;61664;48.112;11.662;2022-10-14T03:02:09;1.05;;;0.95;;
31378;SDS011;61664;48.112;11.662;2022-10-14T03:04:36;1.02;;;0.93;;
31378;SDS011;61664;48.112;11.662;2022-10-14T03:07:03;1.10;;;1.00;;
31378;SDS011;61664;48.112;11.662;2022-10-14T03:09:30;0.98;;;0.90;;
31378;SDS011;61664;48.112;11.662;2022-10-14T03:11:57;0.80;;;0.70;;
31378;SDS011;61664;48.112;11.662;2022-10-14T03:14:24;1.35;;;0.80;;
31378;SDS011;61664;48.112;11.662;2022-10-14T03:16:51;1.65;;;1.10;;
31378;SDS011;61664;48.112;11.662;2022-10-14T03:19:17;1.20;;;1.10;;
31378;SDS011;61664;48.112;11.662;2022-10-14T03:21:44;1.15;;;0.85;;
31378;SDS011;61664;48.112;11.662;2022-10-14T03:24:11;0.70;;;0.70;;
31378;SDS011;61664;48.112;11.662;2022-10-14T03:26:38;0.70;;;0.70;;
31378;SDS011;61664;48.112;11.662;2022-10-14T03:29:05;1.17;;;0.70;;
31378;SDS011;61664;48.112;11.662;2022-10-14T03:31:32;1.13;;;0.73;;
31378;SDS011;61664;48.112;11.662;2022-10-14T03:33:59;1.17;;;0.75;;
31378;SDS011;61664;48.112;11.662;2022-10-14T03:36:26;0.82;;;0.82;;
31378;SDS011;61664;48.112;11.662;2022-10-14T03:38:52;4.20;;;1.10;;
31378;SDS011;61664;48.112;11.662;2022-10-14T03:41:19;0.98;;;0.90;;
31378;SDS011;61664;48.112;11.662;2022-10-14T03:43:46;0.82;;;0.82;;
31378;SDS011;61664;48.112;11.662;2022-10-14T03:46:13;0.95;;;0.93;;
31378;SDS011;61664;48.112;11.662;2022-10-14T03:48:41;1.50;;;1.30;;
31378;SDS011;61664;48.112;11.662;2022-10-14T03:51:08;1.25;;;1.13;;
31378;SDS011;61664;48.112;11.662;2022-10-14T03:53:35;1.70;;;1.25;;
31378;SDS011;61664;48.112;11.662;2022-10-14T03:56:02;1.88;;;1.40;;
31378;SDS011;61664;48.112;11.662;2022-10-14T03:58:29;3.30;;;1.10;;
31378;SDS011;61664;48.112;11.662;2022-10-14T04:00:55;3.47;;;1.25;;
31378;SDS011;61664;48.112;11.662;2022-10-14T04:03:23;0.95;;;0.90;;
31378;SDS011;61664;48.112;11.662;2022-10-14T04:05:50;2.60;;;1.52;;
31378;SDS011;61664;48.112;11.662;2022-10-14T04:08:16;1.58;;;1.15;;
31378;SDS011;61664;48.112;11.662;2022-10-14T04:10:43;1.23;;;1.13;;
31378;SDS011;61664;48.112;11.662;2022-10-14T04:13:10;1.73;;;1.23;;
31378;SDS011;61664;48.112;11.662;2022-10-14T04:15:37;1.40;;;1.30;;
31378;SDS011;61664;48.112;11.662;2022-10-14T04:18:04;1.23;;;1.05;;
31378;SDS011;61664;48.112;11.662;2022-10-14T04:20:31;3.28;;;1.20;;
31378;SDS011;61664;48.112;11.662;2022-10-14T04:22:58;1.15;;;1.05;;
31378;SDS011;61664;48.112;11.662;2022-10-14T04:25:25;1.58;;;1.27;;
31378;SDS011;61664;48.112;11.662;2022-10-14T04:27:52;1.13;;;1.05;;
31378;SDS011;61664;48.112;11.662;2022-10-14T04:30:19;1.50;;;1.00;;
31378;SDS011;61664;48.112;11.662;2022-10-14T04:32:46;5.65;;;1.40;;
31378;SDS011;61664;48.112;11.662;2022-10-14T04:35:13;1.20;;;1.10;;
31378;SDS011;61664;48.112;11.662;2022-10-14T04:37:40;1.30;;;1.20;;
31378;SDS011;61664;48.112;11.662;2022-10-14T04:40:07;1.00;;;1.00;;
31378;SDS011;61664;48.112;11.662;2022-10-14T04:42:34;1.20;;;0.98;;
31378;SDS011;61664;48.112;11.662;2022-10-14T04:45:01;1.45;;;1.17;;
31378;SDS011;61664;48.112;11.662;2022-10-14T04:47:28;1.98;;;1.27;;
31378;SDS011;61664;48.112;11.662;2022-10-14T04:49:55;1.20;;;1.08;;
31378;SDS011;61664;48.112;11.662;2022-10-14T04:52:22;1.35;;;1.23;;
31378;SDS011;61664;48.112;11.662;2022-10-14T04:54:49;1.98;;;1.30;;
31378;SDS011;61664;48.112;11.662;2022-10-14T04:57:16;1.10;;;1.00;;
31378;SDS011;61664;48.112;11.662;2022-10-14T04:59:43;1.00;;;1.00;;
31378;SDS011;61664;48.112;11.662;2022-10-14T05:02:09;1.48;;;1.38;;
31378;SDS011;61664;48.112;11.662;2022-10-14T05:04:36;1.00;;;1.00;;
31378;SDS011;61664;48.112;11.662;2022-10-14T05:07:03;1.38;;;1.27;;
31378;SDS011;61664;48.112;11.662;2022-10-14T05:09:30;1.38;;;1.20;;
31378;SDS011;61664;48.112;11.662;2022-10-14T05:11:58;1.77;;;1.35;;
31378;SDS011;61664;48.112;11.662;2022-10-14T05:14:25;1.27;;;1.17;;
31378;SDS011;61664;48.112;11.662;2022-10-14T05:16:52;1.35;;;1.20;;
31378;SDS011;61664;48.112;11.662;2022-10-14T05:19:19;1.40;;;1.30;;
31378;SDS011;61664;48.112;11.662;2022-10-14T05:21:45;3.78;;;1.50;;
31378;SDS011;61664;48.112;11.662;2022-10-14T05:24:12;1.67;;;1.55;;
31378;SDS011;61664;48.112;11.662;2022-10-14T05:26:39;1.80;;;1.13;;
31378;SDS011;61664;48.112;11.662;2022-10-14T05:29:08;1.25;;;1.17;;
31378;SDS011;61664;48.112;11.662;2022-10-14T05:31:36;1.50;;;1.08;;
31378;SDS011;61664;48.112;11.662;2022-10-14T05:34:03;2.33;;;1.20;;
31378;SDS011;61664;48.112;11.662;2022-10-14T05:36:30;2.03;;;1.40;;
31378;SDS011;61664;48.112;11.662;2022-10-14T05:38:57;1.40;;;1.30;;
31378;SDS011;61664;48.112;11.662;2022-10-14T05:41:24;1.45;;;1.33;;
31378;SDS011;61664;48.112;11.662;2022-10-14T05:43:51;2.25;;;1.27;;
31378;SDS011;61664;48.112;11.662;2022-10-14T05:46:18;2.03;;;1.45;;
31378;SDS011;61664;48.112;11.662;2022-10-14T05:48:45;4.97;;;1.70;;
31378;SDS011;61664;48.112;11.662;2022-10-14T05:51:12;2.65;;;1.08;;
31378;SDS011;61664;48.112;11.662;2022-10-14T05:53:40;2.05;;;1.33;;
31378;SDS011;61664;48.112;11.662;2022-10-14T05:56:08;1.83;;;1.58;;
31378;SDS011;61664;48.112;11.662;2022-10-14T05:58:35;1.38;;;1.27;;
31378;SDS011;61664;48.112;11.662;2022-10-14T06:01:03;1.77;;;1.10;;
31378;SDS011;61664;48.112;11.662;2022-10-14T06:03:33;2.22;;;1.20;;
31378;SDS011;61664;48.112;11.662;2022-10-14T06:06:00;4.25;;;1.25;;
31378;SDS011;61664;48.112;11.662;2022-10-14T06:08:27;1.10;;;1.00;;
31378;SDS011;61664;48.112;11.662;2022-10-14T06:10:54;1.20;;;1.10;;
31378;SDS011;61664;48.112;11.662;2022-10-14T06:13:21;3.50;;;1.38;;
31378;SDS011;61664;48.112;11.662;2022-10-14T06:15:48;1.65;;;1.20;;
31378;SDS011;61664;48.112;11.662;2022-10-14T06:18:15;1.67;;;1.15;;
31378;SDS011;61664;48.112;11.662;2022-10-14T06:20:42;2.40;;;1.60;;
31378;SDS011;61664;48.112;11.662;2022-10-14T06:23:09;1.45;;;1.35;;
31378;SDS011;61664;48.112;11.662;2022-10-14T06:25:35;3.13;;;1.58;;
31378;SDS011;61664;48.112;11.662;2022-10-14T06:28:03;1.80;;;1.48;;
31378;SDS011;61664;48.112;11.662;2022-10-14T06:30:31;1.83;;;1.10;;
31378;SDS011;61664;48.112;11.662;2022-10-14T06:35:53;1.30;;;1.20;;
31378;SDS011;61664;48.112;11.662;2022-10-14T06:38:20;1.67;;;1.50;;
31378;SDS011;61664;48.112;11.662;2022-10-14T06:40:51;2.33;;;1.40;;
31378;SDS011;61664;48.112;11.662;2022-10-14T06:43:20;2.15;;;1.77;;
31378;SDS011;61664;48.112;11.662;2022-10-14T06:45:47;2.58;;;1.88;;
31378;SDS011;61664;48.112;11.662;2022-10-14T06:48:15;2.30;;;1.52;;
31378;SDS011;61664;48.112;11.662;2022-10-14T06:50:42;2.17;;;1.75;;
31378;SDS011;61664;48.112;11.662;2022-10-14T06:53:09;1.98;;;1.70;;
31378;SDS011;61664;48.112;11.662;2022-10-14T06:55:35;2.20;;;2.10;;
31378;SDS011;61664;48.112;11.662;2022-10-14T06:58:02;1.70;;;1.60;;
31378;SDS011;61664;48.112;11.662;2022-10-14T07:00:29;2.05;;;1.95;;
31378;SDS011;61664;48.112;11.662;2022-10-14T07:02:57;1.45;;;1.25;;
31378;SDS011;61664;48.112;11.662;2022-10-14T07:05:24;2.33;;;1.50;;
31378;SDS011;61664;48.112;11.662;2022-10-14T07:07:52;2.28;;;1.33;;
31378;SDS011;61664;48.112;11.662;2022-10-14T07:10:19;1.73;;;1.50;;
31378;SDS011;61664;48.112;11.662;2022-10-14T07:12:46;1.40;;;1.30;;
31378;SDS011;61664;48.112;11.662;2022-10-14T07:15:13;1.65;;;1.38;;
31378;SDS011;61664;48.112;11.662;2022-10-14T07:17:40;1.75;;;1.65;;
31378;SDS011;61664;48.112;11.662;2022-10-14T07:20:07;1.52;;;1.40;;
31378;SDS011;61664;48.112;11.662;2022-10-14T07:22:34;1.50;;;1.40;;
31378;SDS011;61664;48.112;11.662;2022-10-14T07:25:04;3.20;;;1.42;;
31378;SDS011;61664;48.112;11.662;2022-10-14T07:27:32;1.58;;;1.35;;
31378;SDS011;61664;48.112;11.662;2022-10-14T07:29:59;1.50;;;1.40;;
31378;SDS011;61664;48.112;11.662;2022-10-14T07:32:26;1.90;;;1.65;;
31378;SDS011;61664;48.112;11.662;2022-10-14T07:34:53;3.05;;;2.03;;
31378;SDS011;61664;48.112;11.662;2022-10-14T07:37:20;1.50;;;1.40;;
31378;SDS011;61664;48.112;11.662;2022-10-14T07:39:48;1.60;;;1.50;;
31378;SDS011;61664;48.112;11.662;2022-10-14T07:42:15;1.50;;;1.27;;
31378;SDS011;61664;48.112;11.662;2022-10-14T07:44:42;1.30;;;1.20;;
31378;SDS011;61664;48.112;11.662;2022-10-14T07:47:10;2.33;;;1.15;;
31378;SDS011;61664;48.112;11.662;2022-10-14T07:49:38;1.10;;;1.00;;
31378;SDS011;61664;48.112;11.662;2022-10-14T07:52:05;1.30;;;0.95;;
31378;SDS011;61664;48.112;11.662;2022-10-14T07:54:32;1.10;;;1.00;;
31378;SDS011;61664;48.112;11.662;2022-10-14T07:56:59;0.90;;;0.88;;
31378;SDS011;61664;48.112;11.662;2022-10-14T07:59:25;1.02;;;0.80;;
31378;SDS011;61664;48.112;11.662;2022-10-14T08:01:52;1.35;;;1.25;;
31378;SDS011;61664;48.112;11.662;2022-10-14T08:04:22;1.70;;;0.63;;
31378;SDS011;61664;48.112;11.662;2022-10-14T08:06:50;0.68;;;0.65;;
31378;SDS011;61664;48.112;11.662;2022-10-14T08:09:18;1.13;;;0.70;;
31378;SDS011;61664;48.112;11.662;2022-10-14T08:11:45;0.80;;;0.80;;
31378;SDS011;61664;48.112;11.662;2022-10-14T08:14:13;0.45;;;0.45;;
31378;SDS011;61664;48.112;11.662;2022-10-14T08:16:40;0.63;;;0.60;;
31378;SDS011;61664;48.112;11.662;2022-10-14T08:19:08;1.95;;;0.88;;
31378;SDS011;61664;48.112;11.662;2022-10-14T08:21:40;0.82;;;0.55;;
31378;SDS011;61664;48.112;11.662;2022-10-14T08:24:08;1.15;;;0.60;;
31378;SDS011;61664;48.112;11.662;2022-10-14T08:26:37;1.08;;;0.50;;
31378;SDS011;61664;48.112;11.662;2022-10-14T08:29:08;1.07;;;0.70;;
31378;SDS011;61664;48.112;11.662;2022-10-14T08:31:36;1.90;;;0.60;;
31378;SDS011;61664;48.112;11.662;2022-10-14T08:34:03;0.50;;;0.50;;
31378;SDS011;61664;48.112;11.662;2022-10-14T08:36:30;0.52;;;0.40;;
31378;SDS011;61664;48.112;11.662;2022-10-14T08:38:57;1.95;;;0.40;;
31378;SDS011;61664;48.112;11.662;2022-10-14T08:41:34;0.55;;;0.22;;
31378;SDS011;61664;48.112;11.662;2022-10-14T08:45:36;0.30;;;0.30;;
31378;SDS011;61664;48.112;11.662;2022-10-14T08:48:18;0.35;;;0.35;;
31378;SDS011;61664;48.112;11.662;2022-10-14T08:51:04;0.20;;;0.20;;
31378;SDS011;61664;48.112;11.662;2022-10-14T08:53:39;0.20;;;0.20;;
31378;SDS011;61664;48.112;11.662;2022-10-14T08:56:13;1.13;;;0.30;;
31378;SDS011;61664;48.112;11.662;2022-10-14T08:58:45;1.45;;;0.30;;
31378;SDS011;61664;48.112;11.662;2022-10-14T09:03:57;0.30;;;0.30;;
31378;SDS011;61664;48.112;11.662;2022-10-14T09:06:30;0.85;;;0.20;;
31378;SDS011;61664;48.112;11.662;2022-10-14T09:12:02;0.22;;;0.22;;
31378;SDS011;61664;48.112;11.662;2022-10-14T09:14:38;0.40;;;0.32;;
31378;SDS011;61664;48.112;11.662;2022-10-14T09:17:20;1.85;;;0.32;;
31378;SDS011;61664;48.112;11.662;2022-10-14T09:20:38;0.30;;;0.30;;
31378;SDS011;61664;48.112;11.662;2022-10-14T09:23:04;0.30;;;0.30;;
31378;SDS011;61664;48.112;11.662;2022-10-14T09:25:45;0.28;;;0.28;;
31378;SDS011;61664;48.112;11.662;2022-10-14T09:28:15;3.30;;;0.45;;
31378;SDS011;61664;48.112;11.662;2022-10-14T09:30:44;1.65;;;0.35;;
31378;SDS011;61664;48.112;11.662;2022-10-14T09:33:13;0.20;;;0.20;;
31378;SDS011;61664;48.112;11.662;2022-10-14T09:35:45;0.88;;;0.50;;
31378;SDS011;61664;48.112;11.662;2022-10-14T09:38:14;0.40;;;0.40;;
31378;SDS011;61664;48.112;11.662;2022-10-14T09:40:42;0.50;;;0.50;;
31378;SDS011;61664;48.112;11.662;2022-10-14T09:43:18;0.40;;;0.30;;
31378;SDS011;61664;48.112;11.662;2022-10-14T09:51:07;0.28;;;0.25;;
31378;SDS011;61664;48.112;11.662;2022-10-14T09:54:04;0.63;;;0.20;;
31378;SDS011;61664;48.112;11.662;2022-10-14T09:56:34;0.63;;;0.38;;
31378;SDS011;61664;48.112;11.662;2022-10-14T09:59:17;0.30;;;0.30;;
31378;SDS011;61664;48.112;11.662;2022-10-14T10:01:51;0.20;;;0.20;;
31378;SDS011;61664;48.112;11.662;2022-10-14T10:04:25;0.32;;;0.32;;
31378;SDS011;61664;48.112;11.662;2022-10-14T10:09:56;0.70;;;0.30;;
31378;SDS011;61664;48.112;11.662;2022-10-14T10:12:30;0.20;;;0.20;;
31378;SDS011;61664;48.112;11.662;2022-10-14T10:15:01;0.80;;;0.57;;
31378;SDS011;61664;48.112;11.662;2022-10-14T10:17:32;0.30;;;0.20;;
31378;SDS011;61664;48.112;11.662;2022-10-14T10:22:44;0.52;;;0.20;;
31378;SDS011;61664;48.112;11.662;2022-10-14T10:27:39;0.63;;;0.30;;
31378;SDS011;61664;48.112;11.662;2022-10-14T10:35:51;1.17;;;0.82;;
31378;SDS011;61664;48.112;11.662;2022-10-14T10:47:23;0.17;;;0.10;;
31378;SDS011;61664;48.112;11.662;2022-10-14T10:59:15;0.22;;;0.22;;
31378;SDS011;61664;48.112;11.662;2022-10-14T11:11:27;0.82;;;0.43;;
31378;SDS011;61664;48.112;11.662;2022-10-14T11:25:58;0.30;;;0.30;;
31378;SDS011;61664;48.112;11.662;2022-10-14T11:28:42;0.75;;;0.40;;
31378;SDS011;61664;48.112;11.662;2022-10-14T11:39:59;0.30;;;0.30;;
31378;SDS011;61664;48.112;11.662;2022-10-14T11:43:02;2.15;;;0.30;;
31378;SDS011;61664;48.112;11.662;2022-10-14T11:45:56;0.70;;;0.40;;
31378;SDS011;61664;48.112;11.662;2022-10-14T11:48:34;0.47;;;0.20;;
31378;SDS011;61664;48.112;11.662;2022-10-14T11:51:31;1.52;;;0.40;;
31378;SDS011;61664;48.112;11.662;2022-10-14T11:54:13;0.13;;;0.13;;
31378;SDS011;61664;48.112;11.662;2022-10-14T12:05:05;0.22;;;0.22;;
31378;SDS011;61664;48.112;11.662;2022-10-14T12:11:13;0.75;;;0.38;;
31378;SDS011;61664;48.112;11.662;2022-10-14T12:14:08;1.15;;;0.30;;
31378;SDS011;61664;48.112;11.662;2022-10-14T12:16:45;0.30;;;0.30;;
31378;SDS011;61664;48.112;11.662;2022-10-14T12:19:24;0.73;;;0.30;;
31378;SDS011;61664;48.112;11.662;2022-10-14T12:22:03;0.30;;;0.30;;
31378;SDS011;61664;48.112;11.662;2022-10-14T12:24:47;0.32;;;0.32;;
31378;SDS011;61664;48.112;11.662;2022-10-14T12:27:20;0.75;;;0.32;;
31378;SDS011;61664;48.112;11.662;2022-10-14T12:29:51;1.23;;;1.10;;
31378;SDS011;61664;48.112;11.662;2022-10-14T12:32:23;1.38;;;0.75;;
31378;SDS011;61664;48.112;11.662;2022-10-14T12:34:53;0.85;;;0.47;;
31378;SDS011;61664;48.112;11.662;2022-10-14T12:40:21;0.63;;;0.30;;
31378;SDS011;61664;48.112;11.662;2022-10-14T12:43:01;0.25;;;0.25;;
31378;SDS011;61664;48.112;11.662;2022-10-14T12:45:45;0.38;;;0.20;;
31378;SDS011;61664;48.112;11.662;2022-10-14T12:48:21;0.63;;;0.40;;
31378;SDS011;61664;48.112;11.662;2022-10-14T12:51:06;2.00;;;0.30;;
31378;SDS011;61664;48.112;11.662;2022-10-14T12:53:55;0.52;;;0.30;;
31378;SDS011;61664;48.112;11.662;2022-10-14T12:56:52;1.23;;;0.45;;
31378;SDS011;61664;48.112;11.662;2022-10-14T12:59:23;0.20;;;0.20;;
31378;SDS011;61664;48.112;11.662;2022-10-14T13:01:57;2.75;;;1.05;;
31378;SDS011;61664;48.112;11.662;2022-10-14T13:04:46;0.70;;;0.50;;
31378;SDS011;61664;48.112;11.662;2022-10-14T13:13:44;0.52;;;0.50;;
31378;SDS011;61664;48.112;11.662;2022-10-14T13:24:19;0.47;;;0.40;;
31378;SDS011;61664;48.112;11.662;2022-10-14T13:33:11;0.65;;;0.65;;
31378;SDS011;61664;48.112;11.662;2022-10-14T13:36:29;0.43;;;0.43;;
31378;SDS011;61664;48.112;11.662;2022-10-14T13:39:04;0.55;;;0.55;;
31378;SDS011;61664;48.112;11.662;2022-10-14T13:41:31;0.73;;;0.60;;
31378;SDS011;61664;48.112;11.662;2022-10-14T13:43:59;0.60;;;0.60;;
31378;SDS011;61664;48.112;11.662;2022-10-14T13:46:43;0.60;;;0.50;;
31378;SDS011;61664;48.112;11.662;2022-10-14T13:49:16;1.15;;;1.10;;
31378;SDS011;61664;48.112;11.662;2022-10-14T13:52:04;0.93;;;0.93;;
31378;SDS011;61664;48.112;11.662;2022-10-14T13:54:38;0.80;;;0.50;;
31378;SDS011;61664;48.112;11.662;2022-10-14T13:57:12;0.73;;;0.57;;
31378;SDS011;61664;48.112;11.662;2022-10-14T14:00:01;0.70;;;0.60;;
31378;SDS011;61664;48.112;11.662;2022-10-14T14:02:49;0.90;;;0.73;;
31378;SDS011;61664;48.112;11.662;2022-10-14T14:05:24;0.68;;;0.55;;
31378;SDS011;61664;48.112;11.662;2022-10-14T14:07:55;0.50;;;0.50;;
31378;SDS011;61664;48.112;11.662;2022-10-14T14:10:54;0.63;;;0.40;;
31378;SDS011;61664;48.112;11.662;2022-10-14T14:13:51;0.45;;;0.43;;
31378;SDS011;61664;48.112;11.662;2022-10-14T14:16:27;1.55;;;1.00;;
31378;SDS011;61664;48.112;11.662;2022-10-14T14:19:04;0.80;;;0.70;;
31378;SDS011;61664;48.112;11.662;2022-10-14T14:21:35;1.30;;;0.60;;
31378;SDS011;61664;48.112;11.662;2022-10-14T14:24:05;0.75;;;0.60;;
31378;SDS011;61664;48.112;11.662;2022-10-14T14:26:53;0.70;;;0.70;;
31378;SDS011;61664;48.112;11.662;2022-10-14T14:29:23;1.98;;;0.75;;
31378;SDS011;61664;48.112;11.662;2022-10-14T14:31:54;0.60;;;0.50;;
31378;SDS011;61664;48.112;11.662;2022-10-14T14:34:33;0.68;;;0.50;;
31378;SDS011;61664;48.112;11.662;2022-10-14T14:37:03;0.65;;;0.65;;
31378;SDS011;61664;48.112;11.662;2022-10-14T14:39:55;1.67;;;0.50;;
31378;SDS011;61664;48.112;11.662;2022-10-14T14:42:41;0.50;;;0.40;;
31378;SDS011;61664;48.112;11.662;2022-10-14T14:47:39;2.17;;;1.20;;
31378;SDS011;61664;48.112;11.662;2022-10-14T14:50:10;3.75;;;1.73;;
31378;SDS011;61664;48.112;11.662;2022-10-14T14:52:56;2.08;;;1.98;;
31378;SDS011;61664;48.112;11.662;2022-10-14T14:55:36;1.10;;;1.00;;
31378;SDS011;61664;48.112;11.662;2022-10-14T14:58:23;3.90;;;1.48;;
31378;SDS011;61664;48.112;11.662;2022-10-14T15:01:17;1.25;;;0.85;;
31378;SDS011;61664;48.112;11.662;2022-10-14T15:03:56;0.63;;;0.63;;
31378;SDS011;61664;48.112;11.662;2022-10-14T15:06:39;5.80;;;0.50;;
31378;SDS011;61664;48.112;11.662;2022-10-14T15:12:21;0.50;;;0.50;;
31378;SDS011;61664;48.112;11.662;2022-10-14T15:14:56;0.68;;;0.40;;
31378;SDS011;61664;48.112;11.662;2022-10-14T15:22:33;1.08;;;0.90;;
31378;SDS011;61664;48.112;11.662;2022-10-14T15:25:07;1.27;;;1.00;;
31378;SDS011;61664;48.112;11.662;2022-10-14T15:27:41;1.48;;;0.70;;
31378;SDS011;61664;48.112;11.662;2022-10-14T15:33:04;0.77;;;0.77;;
31378;SDS011;61664;48.112;11.662;2022-10-14T15:35:45;0.63;;;0.50;;
31378;SDS011;61664;48.112;11.662;2022-10-14T15:38:21;0.63;;;0.63;;
31378;SDS011;61664;48.112;11.662;2022-10-14T15:40:48;3.22;;;1.13;;
31378;SDS011;61664;48.112;11.662;2022-10-14T15:43:17;1.10;;;0.70;;
31378;SDS011;61664;48.112;11.662;2022-10-14T15:45:50;0.85;;;0.75;;
31378;SDS011;61664;48.112;11.662;2022-10-14T15:48:38;0.50;;;0.50;;
31378;SDS011;61664;48.112;11.662;2022-10-14T15:51:14;0.90;;;0.90;;
31378;SDS011;61664;48.112;11.662;2022-10-14T15:53:43;0.85;;;0.85;;
31378;SDS011;61664;48.112;11.662;2022-10-14T15:56:09;1.30;;;0.82;;
31378;SDS011;61664;48.112;11.662;2022-10-14T15:58:37;0.90;;;0.70;;
31378;SDS011;61664;48.112;11.662;2022-10-14T16:01:04;0.75;;;0.75;;
31378;SDS011;61664;48.112;11.662;2022-10-14T16:03:32;0.93;;;0.90;;
31378;SDS011;61664;48.112;11.662;2022-10-14T16:06:02;1.92;;;0.90;;
31378;SDS011;61664;48.112;11.662;2022-10-14T16:08:29;1.23;;;1.20;;
31378;SDS011;61664;48.112;11.662;2022-10-14T16:10:56;1.15;;;0.90;;
31378;SDS011;61664;48.112;11.662;2022-10-14T16:13:24;1.02;;;0.88;;
31378;SDS011;61664;48.112;11.662;2022-10-14T16:15:51;0.70;;;0.70;;
31378;SDS011;61664;48.112;11.662;2022-10-14T16:18:25;0.70;;;0.70;;
31378;SDS011;61664;48.112;11.662;2022-10-14T16:20:52;1.85;;;0.90;;
31378;SDS011;61664;48.112;11.662;2022-10-14T16:23:19;0.75;;;0.75;;
31378;SDS011;61664;48.112;11.662;2022-10-14T16:25:53;1.10;;;0.80;;
31378;SDS011;61664;48.112;11.662;2022-10-14T16:28:20;1.42;;;0.90;;
31378;SDS011;61664;48.112;11.662;2022-10-14T16:30:47;1.30;;;1.20;;
31378;SDS011;61664;48.112;11.662;2022-10-14T16:33:18;1.10;;;1.00;;
31378;SDS011;61664;48.112;11.662;2022-10-14T16:35:51;0.80;;;0.80;;
31378;SDS011;61664;48.112;11.662;2022-10-14T16:38:20;1.13;;;1.02;;
31378;SDS011;61664;48.112;11.662;2022-10-14T16:40:53;1.77;;;0.68;;
31378;SDS011;61664;48.112;11.662;2022-10-14T16:43:26;0.85;;;0.85;;
31378;SDS011;61664;48.112;11.662;2022-10-14T16:45:58;1.15;;;0.95;;
31378;SDS011;61664;48.112;11.662;2022-10-14T16:48:29;1.25;;;0.85;;
31378;SDS011;61664;48.112;11.662;2022-10-14T16:50:58;2.00;;;0.68;;
31378;SDS011;61664;48.112;11.662;2022-10-14T16:53:26;0.80;;;0.65;;
31378;SDS011;61664;48.112;11.662;2022-10-14T16:56:17;1.88;;;0.88;;
31378;SDS011;61664;48.112;11.662;2022-10-14T16:59:04;0.93;;;0.80;;
31378;SDS011;61664;48.112;11.662;2022-10-14T17:01:33;0.90;;;0.90;;
31378;SDS011;61664;48.112;11.662;2022-10-14T17:04:00;1.40;;;1.27;;
31378;SDS011;61664;48.112;11.662;2022-10-14T17:06:27;1.50;;;1.40;;
31378;SDS011;61664;48.112;11.662;2022-10-14T17:08:54;5.03;;;4.13;;
31378;SDS011;61664;48.112;11.662;2022-10-14T17:11:21;4.10;;;3.28;;
31378;SDS011;61664;48.112;11.662;2022-10-14T17:13:49;3.03;;;2.30;;
31378;SDS011;61664;48.112;11.662;2022-10-14T17:16:18;2.15;;;1.25;;
31378;SDS011;61664;48.112;11.662;2022-10-14T17:18:45;0.98;;;0.95;;
31378;SDS011;61664;48.112;11.662;2022-10-14T17:21:18;1.00;;;0.77;;
31378;SDS011;61664;48.112;11.662;2022-10-14T17:23:45;1.23;;;0.95;;
31378;SDS011;61664;48.112;11.662;2022-10-14T17:26:17;1.00;;;0.88;;
31378;SDS011;61664;48.112;11.662;2022-10-14T17:28:45;1.33;;;1.10;;
31378;SDS011;61664;48.112;11.662;2022-10-14T17:31:14;1.90;;;1.80;;
31378;SDS011;61664;48.112;11.662;2022-10-14T17:33:46;1.23;;;1.13;;
31378;SDS011;61664;48.112;11.662;2022-10-14T17:36:23;1.45;;;1.13;;
31378;SDS011;61664;48.112;11.662;2022-10-14T17:38:54;0.85;;;0.85;;
31378;SDS011;61664;48.112;11.662;2022-10-14T17:41:23;1.52;;;1.30;;